EAL8280 KIWA-SVMI
Flight info
| Callsign | EAL8280 |
|---|---|
| Flight time | N/A |
| Altitude | 37000 |
| Route | KATMN6 PHASE DCT EWM J4 INK DCT CWK DCT VUH DCT KELPP A766 KEHLI UL674 NUDIS DCT GOSUL DCT MITOL DCT BIKOG/N0478F390 DCT BOSOM UL674 KINOP UM409 ERIKO UQ127 GILGA DCT CRO UW1 VUNUM DCT ISISU ALDAK1 |
| Aircraft | B772/H-SDE3FGHIJ1J3J7M3P2RWXYZ/SB2D1 |
Departure
| Time | N/A |
|---|---|
| Airport | Mesa Gateway Airport (KIWA) |
Arrival
| Time | 2026-04-27 22:53 |
|---|---|
| Airport | Maiquetía Simón Bolívar International Airport (SVMI) |
| Time | Latitude | Longitude | Altitude | Speed | Heading |
|---|---|---|---|---|---|
| 2026-04-27 22:20 | 11.64233 | -70.14665 | 38867 ft | 485 kts | 120° |
| 2026-04-27 22:20 | 11.61113 | -70.08543 | 38869 ft | 485 kts | 120° |
| 2026-04-27 22:21 | 11.58003 | -70.02444 | 38871 ft | 485 kts | 120° |
| 2026-04-27 22:21 | 11.54901 | -69.96365 | 38875 ft | 485 kts | 120° |
| 2026-04-27 22:22 | 11.51793 | -69.90280 | 38871 ft | 483 kts | 120° |
| 2026-04-27 22:22 | 11.48701 | -69.84229 | 38867 ft | 483 kts | 120° |
| 2026-04-27 22:23 | 11.45583 | -69.78132 | 38872 ft | 484 kts | 120° |
| 2026-04-27 22:23 | 11.42461 | -69.72016 | 38881 ft | 484 kts | 118° |
| 2026-04-27 22:24 | 11.40371 | -69.65514 | 38904 ft | 490 kts | 104° |
| 2026-04-27 22:24 | 11.39072 | -69.58659 | 38915 ft | 489 kts | 103° |
| 2026-04-27 22:25 | 11.37792 | -69.51856 | 38926 ft | 491 kts | 103° |
| 2026-04-27 22:25 | 11.36503 | -69.45026 | 38929 ft | 491 kts | 103° |
| 2026-04-27 22:26 | 11.35221 | -69.38254 | 38930 ft | 490 kts | 103° |
| 2026-04-27 22:26 | 11.33927 | -69.31427 | 38922 ft | 489 kts | 103° |
| 2026-04-27 22:27 | 11.32639 | -69.24648 | 38912 ft | 489 kts | 103° |
| 2026-04-27 22:27 | 11.31345 | -69.17845 | 38908 ft | 488 kts | 103° |
| 2026-04-27 22:28 | 11.30220 | -69.11944 | 38906 ft | 487 kts | 103° |
| 2026-04-27 22:28 | 11.28930 | -69.05180 | 38902 ft | 487 kts | 103° |
| 2026-04-27 22:29 | 11.27641 | -68.98427 | 38668 ft | 483 kts | 103° |
| 2026-04-27 22:29 | 11.26998 | -68.95065 | 37659 ft | 487 kts | 103° |
| 2026-04-27 22:29 | 11.26356 | -68.91712 | 36744 ft | 487 kts | 103° |
| 2026-04-27 22:29 | 11.25712 | -68.88344 | 36111 ft | 483 kts | 103° |
| 2026-04-27 22:30 | 11.25076 | -68.85023 | 35205 ft | 484 kts | 103° |
| 2026-04-27 22:30 | 11.24425 | -68.81632 | 34314 ft | 484 kts | 103° |
| 2026-04-27 22:30 | 11.23783 | -68.78283 | 33498 ft | 483 kts | 103° |
| 2026-04-27 22:30 | 11.23151 | -68.74989 | 32712 ft | 481 kts | 103° |
| 2026-04-27 22:31 | 11.22511 | -68.71654 | 31942 ft | 480 kts | 103° |
| 2026-04-27 22:31 | 11.21873 | -68.68338 | 31121 ft | 480 kts | 103° |
| 2026-04-27 22:31 | 11.21226 | -68.64973 | 30454 ft | 476 kts | 103° |
| 2026-04-27 22:31 | 11.20600 | -68.61715 | 29969 ft | 469 kts | 103° |
| 2026-04-27 22:32 | 11.19981 | -68.58495 | 29364 ft | 465 kts | 103° |
| 2026-04-27 22:32 | 11.19359 | -68.55267 | 28744 ft | 461 kts | 103° |
| 2026-04-27 22:32 | 11.18714 | -68.52096 | 28105 ft | 457 kts | 106° |
| 2026-04-27 22:32 | 11.17685 | -68.49070 | 27538 ft | 450 kts | 115° |
| 2026-04-27 22:33 | 11.16208 | -68.46310 | 27001 ft | 442 kts | 125° |
| 2026-04-27 22:33 | 11.14325 | -68.43851 | 26473 ft | 436 kts | 134° |
| 2026-04-27 22:33 | 11.12125 | -68.41760 | 25799 ft | 434 kts | 142° |
| 2026-04-27 22:33 | 11.09641 | -68.40062 | 25174 ft | 430 kts | 151° |
| 2026-04-27 22:34 | 11.07076 | -68.38542 | 24655 ft | 426 kts | 146° |
| 2026-04-27 22:34 | 11.04771 | -68.36665 | 23996 ft | 426 kts | 138° |
| 2026-04-27 22:34 | 11.02674 | -68.34556 | 23331 ft | 427 kts | 134° |
| 2026-04-27 22:34 | 11.00699 | -68.32293 | 22746 ft | 425 kts | 130° |
| 2026-04-27 22:35 | 10.98848 | -68.29964 | 22187 ft | 422 kts | 128° |
| 2026-04-27 22:35 | 10.97082 | -68.27601 | 21659 ft | 419 kts | 127° |
| 2026-04-27 22:35 | 10.95373 | -68.25195 | 21136 ft | 416 kts | 126° |
| 2026-04-27 22:35 | 10.93735 | -68.22801 | 20620 ft | 413 kts | 125° |
| 2026-04-27 22:36 | 10.92132 | -68.20403 | 20106 ft | 409 kts | 124° |
| 2026-04-27 22:36 | 10.90550 | -68.17988 | 19580 ft | 406 kts | 124° |
| 2026-04-27 22:36 | 10.89014 | -68.15613 | 19074 ft | 403 kts | 124° |
| 2026-04-27 22:36 | 10.87468 | -68.13199 | 18549 ft | 400 kts | 124° |
| 2026-04-27 22:37 | 10.85977 | -68.10856 | 18035 ft | 398 kts | 124° |
| 2026-04-27 22:37 | 10.84482 | -68.08495 | 17531 ft | 395 kts | 123° |
| 2026-04-27 22:37 | 10.83002 | -68.06149 | 17007 ft | 392 kts | 123° |
| 2026-04-27 22:37 | 10.81538 | -68.03826 | 16496 ft | 390 kts | 123° |
| 2026-04-27 22:38 | 10.80091 | -68.01525 | 15987 ft | 387 kts | 123° |
| 2026-04-27 22:38 | 10.78635 | -67.99209 | 15464 ft | 385 kts | 123° |
| 2026-04-27 22:38 | 10.77204 | -67.96929 | 14943 ft | 383 kts | 123° |
| 2026-04-27 22:38 | 10.75793 | -67.94681 | 14413 ft | 381 kts | 123° |
| 2026-04-27 22:39 | 10.74359 | -67.92395 | 13874 ft | 378 kts | 123° |
| 2026-04-27 22:39 | 10.72958 | -67.90163 | 13355 ft | 375 kts | 123° |
| 2026-04-27 22:39 | 10.71568 | -67.87947 | 12841 ft | 373 kts | 123° |
| 2026-04-27 22:39 | 10.70173 | -67.85725 | 12319 ft | 370 kts | 123° |
| 2026-04-27 22:40 | 10.68791 | -67.83523 | 11792 ft | 368 kts | 123° |
| 2026-04-27 22:40 | 10.67427 | -67.81349 | 11287 ft | 364 kts | 122° |
| 2026-04-27 22:40 | 10.66076 | -67.79198 | 10833 ft | 359 kts | 122° |
| 2026-04-27 22:40 | 10.64764 | -67.77107 | 10719 ft | 344 kts | 122° |
| 2026-04-27 22:41 | 10.63498 | -67.75092 | 10636 ft | 329 kts | 122° |
| 2026-04-27 22:41 | 10.62289 | -67.73167 | 10522 ft | 317 kts | 122° |
| 2026-04-27 22:41 | 10.61299 | -67.71591 | 10415 ft | 307 kts | 122° |
| 2026-04-27 22:41 | 10.60164 | -67.69783 | 10284 ft | 297 kts | 122° |
| 2026-04-27 22:42 | 10.59077 | -67.68049 | 10158 ft | 287 kts | 121° |
| 2026-04-27 22:42 | 10.58386 | -67.66190 | 9998 ft | 279 kts | 99° |
| 2026-04-27 22:42 | 10.58271 | -67.64250 | 9685 ft | 279 kts | 91° |
| 2026-04-27 22:42 | 10.58313 | -67.62258 | 9333 ft | 279 kts | 90° |
| 2026-04-27 22:43 | 10.58381 | -67.60305 | 9011 ft | 275 kts | 89° |
| 2026-04-27 22:43 | 10.58450 | -67.58375 | 8714 ft | 274 kts | 89° |
| 2026-04-27 22:43 | 10.58517 | -67.56461 | 8400 ft | 272 kts | 89° |
| 2026-04-27 22:43 | 10.58583 | -67.54542 | 8090 ft | 271 kts | 90° |
| 2026-04-27 22:44 | 10.58649 | -67.52625 | 7790 ft | 269 kts | 90° |
| 2026-04-27 22:44 | 10.58714 | -67.50738 | 7486 ft | 268 kts | 89° |
| 2026-04-27 22:44 | 10.58779 | -67.48844 | 7189 ft | 266 kts | 89° |
| 2026-04-27 22:44 | 10.58844 | -67.46957 | 6888 ft | 265 kts | 89° |
| 2026-04-27 22:45 | 10.58907 | -67.45107 | 6590 ft | 263 kts | 89° |
| 2026-04-27 22:45 | 10.58971 | -67.43243 | 6294 ft | 261 kts | 89° |
| 2026-04-27 22:45 | 10.59033 | -67.41420 | 6009 ft | 259 kts | 89° |
| 2026-04-27 22:45 | 10.59095 | -67.39614 | 5729 ft | 257 kts | 89° |
| 2026-04-27 22:46 | 10.59156 | -67.37804 | 5441 ft | 255 kts | 89° |
| 2026-04-27 22:46 | 10.59218 | -67.35989 | 5144 ft | 254 kts | 89° |
| 2026-04-27 22:46 | 10.59278 | -67.34218 | 4866 ft | 252 kts | 89° |
| 2026-04-27 22:46 | 10.59338 | -67.32449 | 4587 ft | 250 kts | 89° |
| 2026-04-27 22:47 | 10.59398 | -67.30675 | 4303 ft | 249 kts | 89° |
| 2026-04-27 22:47 | 10.59457 | -67.28925 | 4060 ft | 246 kts | 88° |
| 2026-04-27 22:47 | 10.59515 | -67.27216 | 4016 ft | 236 kts | 89° |
| 2026-04-27 22:47 | 10.59569 | -67.25607 | 4007 ft | 223 kts | 89° |
| 2026-04-27 22:48 | 10.59620 | -67.24072 | 4012 ft | 215 kts | 89° |
| 2026-04-27 22:48 | 10.59671 | -67.22533 | 4021 ft | 221 kts | 89° |
| 2026-04-27 22:48 | 10.59724 | -67.20958 | 4024 ft | 222 kts | 89° |
| 2026-04-27 22:48 | 10.59773 | -67.19398 | 3943 ft | 221 kts | 89° |
| 2026-04-27 22:49 | 10.59811 | -67.17858 | 3605 ft | 219 kts | 89° |
| 2026-04-27 22:49 | 10.59850 | -67.16342 | 3255 ft | 204 kts | 88° |
| 2026-04-27 22:49 | 10.59885 | -67.14990 | 2978 ft | 184 kts | 88° |
| 2026-04-27 22:49 | 10.59918 | -67.13732 | 2733 ft | 170 kts | 88° |
| 2026-04-27 22:50 | 10.59949 | -67.12560 | 2507 ft | 165 kts | 88° |
| 2026-04-27 22:50 | 10.59979 | -67.11398 | 2289 ft | 166 kts | 88° |
| 2026-04-27 22:50 | 10.60009 | -67.10244 | 2050 ft | 159 kts | 88° |
| 2026-04-27 22:50 | 10.60037 | -67.09157 | 1838 ft | 150 kts | 88° |
| 2026-04-27 22:51 | 10.60064 | -67.08148 | 1651 ft | 135 kts | 88° |
| 2026-04-27 22:51 | 10.60088 | -67.07213 | 1467 ft | 133 kts | 88° |
| 2026-04-27 22:51 | 10.60123 | -67.06254 | 1291 ft | 135 kts | 87° |
| 2026-04-27 22:51 | 10.60163 | -67.05301 | 1106 ft | 136 kts | 87° |
| 2026-04-27 22:52 | 10.60168 | -67.04347 | 920 ft | 136 kts | 90° |
| 2026-04-27 22:52 | 10.60154 | -67.03369 | 736 ft | 137 kts | 89° |
| 2026-04-27 22:52 | 10.60177 | -67.02404 | 573 ft | 137 kts | 88° |
| 2026-04-27 22:52 | 10.60207 | -67.01427 | 411 ft | 139 kts | 88° |
| 2026-04-27 22:53 | 10.60237 | -67.00455 | 306 ft | 127 kts | 88° |
| 2026-04-27 22:53 | 10.60259 | -66.99745 | 290 ft | 74 kts | 88° |
| 2026-04-27 22:53 | 10.60272 | -66.99316 | 272 ft | 46 kts | 88° |
| 2026-04-27 22:53 | 10.60254 | -66.99126 | 263 ft | 16 kts | 134° |
| 2026-04-27 22:54 | 10.60146 | -66.99099 | 266 ft | 15 kts | 168° |
| 2026-04-27 22:54 | 10.60046 | -66.99101 | 268 ft | 13 kts | 220° |
| 2026-04-27 22:54 | 10.60014 | -66.99181 | 273 ft | 10 kts | 254° |
| 2026-04-27 22:54 | 10.59994 | -66.99257 | 279 ft | 13 kts | 256° |
| 2026-04-27 22:55 | 10.59965 | -66.99374 | 285 ft | 20 kts | 257° |
| 2026-04-27 22:55 | 10.59927 | -66.99544 | 295 ft | 25 kts | 257° |
| 2026-04-27 22:55 | 10.59982 | -66.99663 | 298 ft | 20 kts | 347° |
| 2026-04-27 22:55 | 10.60108 | -66.99684 | 293 ft | 16 kts | 330° |
| 2026-04-27 22:56 | 10.60139 | -66.99783 | 296 ft | 14 kts | 268° |
| 2026-04-27 22:56 | 10.60131 | -66.99876 | 299 ft | 12 kts | 265° |
| 2026-04-27 22:56 | 10.60122 | -66.99974 | 302 ft | 15 kts | 265° |
| 2026-04-27 22:56 | 10.60115 | -67.00080 | 304 ft | 14 kts | 266° |
| 2026-04-27 22:57 | 10.60108 | -67.00185 | 306 ft | 14 kts | 266° |
| 2026-04-27 22:57 | 10.60079 | -67.00278 | 307 ft | 14 kts | 221° |
| 2026-04-27 22:57 | 10.60009 | -67.00372 | 309 ft | 19 kts | 252° |
| 2026-04-27 22:57 | 10.59992 | -67.00502 | 308 ft | 11 kts | 255° |
| 2026-04-27 22:58 | 10.59988 | -67.00598 | 307 ft | 17 kts | 270° |
| 2026-04-27 22:58 | 10.59983 | -67.00735 | 305 ft | 0 kts | 265° |
| 2026-04-27 22:58 | 10.59975 | -67.00743 | 304 ft | 5 kts | 197° |
| 2026-04-27 22:58 | 10.59934 | -67.00694 | 306 ft | 8 kts | 137° |
| 2026-04-27 22:59 | 10.59881 | -67.00684 | 306 ft | 7 kts | 178° |
| 2026-04-27 22:59 | 10.59840 | -67.00683 | 307 ft | 3 kts | 178° |
| 2026-04-27 22:59 | 10.59829 | -67.00682 | 307 ft | 0 kts | 178° |